sensor_id;sensor_type;location;lat;lon;timestamp;P1;durP1;ratioP1;P2;durP2;ratioP2
938;SDS011;456;53.584;9.968;2023-06-22T00:02:12;2.60;;;2.40;;
938;SDS011;456;53.584;9.968;2023-06-22T00:04:38;3.60;;;3.30;;
938;SDS011;456;53.584;9.968;2023-06-22T00:07:03;2.80;;;2.60;;
938;SDS011;456;53.584;9.968;2023-06-22T00:09:29;3.47;;;3.17;;
938;SDS011;456;53.584;9.968;2023-06-22T00:11:56;3.00;;;2.80;;
938;SDS011;456;53.584;9.968;2023-06-22T00:14:21;3.47;;;3.17;;
938;SDS011;456;53.584;9.968;2023-06-22T00:16:47;3.30;;;2.70;;
938;SDS011;456;53.584;9.968;2023-06-22T00:19:13;3.07;;;2.83;;
938;SDS011;456;53.584;9.968;2023-06-22T00:21:40;3.10;;;2.80;;
938;SDS011;456;53.584;9.968;2023-06-22T00:24:06;3.43;;;2.97;;
938;SDS011;456;53.584;9.968;2023-06-22T00:26:31;3.13;;;2.83;;
938;SDS011;456;53.584;9.968;2023-06-22T00:28:57;3.27;;;2.63;;
938;SDS011;456;53.584;9.968;2023-06-22T00:31:22;2.70;;;2.47;;
938;SDS011;456;53.584;9.968;2023-06-22T00:33:48;3.47;;;3.17;;
938;SDS011;456;53.584;9.968;2023-06-22T00:36:15;3.47;;;3.17;;
938;SDS011;456;53.584;9.968;2023-06-22T00:38:42;3.00;;;2.80;;
938;SDS011;456;53.584;9.968;2023-06-22T00:41:08;3.30;;;3.00;;
938;SDS011;456;53.584;9.968;2023-06-22T00:43:34;2.90;;;2.40;;
938;SDS011;456;53.584;9.968;2023-06-22T00:46:00;2.87;;;2.67;;
938;SDS011;456;53.584;9.968;2023-06-22T00:48:25;2.97;;;2.67;;
938;SDS011;456;53.584;9.968;2023-06-22T00:50:51;3.07;;;2.87;;
938;SDS011;456;53.584;9.968;2023-06-22T00:53:18;2.90;;;2.70;;
938;SDS011;456;53.584;9.968;2023-06-22T00:55:44;3.03;;;2.70;;
938;SDS011;456;53.584;9.968;2023-06-22T00:58:16;3.13;;;2.83;;
938;SDS011;456;53.584;9.968;2023-06-22T01:00:46;3.07;;;2.40;;
938;SDS011;456;53.584;9.968;2023-06-22T01:03:12;2.90;;;2.70;;
938;SDS011;456;53.584;9.968;2023-06-22T01:05:39;2.83;;;2.63;;
938;SDS011;456;53.584;9.968;2023-06-22T01:13:32;2.83;;;2.63;;
938;SDS011;456;53.584;9.968;2023-06-22T01:16:32;2.87;;;2.57;;
938;SDS011;456;53.584;9.968;2023-06-22T01:19:01;2.97;;;2.67;;
938;SDS011;456;53.584;9.968;2023-06-22T01:21:42;3.17;;;2.97;;
938;SDS011;456;53.584;9.968;2023-06-22T01:26:42;2.53;;;2.33;;
938;SDS011;456;53.584;9.968;2023-06-22T01:29:15;3.40;;;3.10;;
938;SDS011;456;53.584;9.968;2023-06-22T01:31:42;4.17;;;3.40;;
938;SDS011;456;53.584;9.968;2023-06-22T01:34:09;3.90;;;3.47;;
938;SDS011;456;53.584;9.968;2023-06-22T01:36:37;3.30;;;2.87;;
938;SDS011;456;53.584;9.968;2023-06-22T01:39:05;3.00;;;2.80;;
938;SDS011;456;53.584;9.968;2023-06-22T01:41:33;3.20;;;2.90;;
938;SDS011;456;53.584;9.968;2023-06-22T01:43:59;2.80;;;2.60;;
938;SDS011;456;53.584;9.968;2023-06-22T01:46:26;3.17;;;2.87;;
938;SDS011;456;53.584;9.968;2023-06-22T01:48:52;3.30;;;3.00;;
938;SDS011;456;53.584;9.968;2023-06-22T01:51:18;3.73;;;2.80;;
938;SDS011;456;53.584;9.968;2023-06-22T01:53:44;3.30;;;3.00;;
938;SDS011;456;53.584;9.968;2023-06-22T01:56:10;3.60;;;2.97;;
938;SDS011;456;53.584;9.968;2023-06-22T01:58:37;2.87;;;2.67;;
938;SDS011;456;53.584;9.968;2023-06-22T02:01:11;2.90;;;2.70;;
938;SDS011;456;53.584;9.968;2023-06-22T02:03:52;2.97;;;2.73;;
938;SDS011;456;53.584;9.968;2023-06-22T02:06:27;2.87;;;2.67;;
938;SDS011;456;53.584;9.968;2023-06-22T02:09:01;3.00;;;2.80;;
938;SDS011;456;53.584;9.968;2023-06-22T02:11:31;3.20;;;2.90;;
938;SDS011;456;53.584;9.968;2023-06-22T02:13:58;3.03;;;2.73;;
938;SDS011;456;53.584;9.968;2023-06-22T02:16:24;3.37;;;2.67;;
938;SDS011;456;53.584;9.968;2023-06-22T02:18:50;3.20;;;2.90;;
938;SDS011;456;53.584;9.968;2023-06-22T02:21:18;3.20;;;2.90;;
938;SDS011;456;53.584;9.968;2023-06-22T02:23:44;3.03;;;2.73;;
938;SDS011;456;53.584;9.968;2023-06-22T02:26:10;2.80;;;2.60;;
938;SDS011;456;53.584;9.968;2023-06-22T02:28:35;2.93;;;2.73;;
938;SDS011;456;53.584;9.968;2023-06-22T02:31:01;2.90;;;2.67;;
938;SDS011;456;53.584;9.968;2023-06-22T02:33:27;3.43;;;2.80;;
938;SDS011;456;53.584;9.968;2023-06-22T02:35:52;3.03;;;2.70;;
938;SDS011;456;53.584;9.968;2023-06-22T02:38:18;2.50;;;2.30;;
938;SDS011;456;53.584;9.968;2023-06-22T02:40:45;3.50;;;2.60;;
938;SDS011;456;53.584;9.968;2023-06-22T02:43:10;3.40;;;2.87;;
938;SDS011;456;53.584;9.968;2023-06-22T02:45:37;3.93;;;2.60;;
938;SDS011;456;53.584;9.968;2023-06-22T02:48:02;2.97;;;2.77;;
938;SDS011;456;53.584;9.968;2023-06-22T02:50:28;3.03;;;2.73;;
938;SDS011;456;53.584;9.968;2023-06-22T02:52:54;3.63;;;3.33;;
938;SDS011;456;53.584;9.968;2023-06-22T02:55:19;3.80;;;3.00;;
938;SDS011;456;53.584;9.968;2023-06-22T02:57:45;3.60;;;3.00;;
938;SDS011;456;53.584;9.968;2023-06-22T03:00:12;3.80;;;3.50;;
938;SDS011;456;53.584;9.968;2023-06-22T03:02:46;3.63;;;2.93;;
938;SDS011;456;53.584;9.968;2023-06-22T03:05:12;3.00;;;2.80;;
938;SDS011;456;53.584;9.968;2023-06-22T03:07:43;3.93;;;3.33;;
938;SDS011;456;53.584;9.968;2023-06-22T03:10:09;3.27;;;3.00;;
938;SDS011;456;53.584;9.968;2023-06-22T03:12:36;3.23;;;2.90;;
938;SDS011;456;53.584;9.968;2023-06-22T03:15:03;2.97;;;2.67;;
938;SDS011;456;53.584;9.968;2023-06-22T03:17:33;3.43;;;3.13;;
938;SDS011;456;53.584;9.968;2023-06-22T03:20:00;4.60;;;3.50;;
938;SDS011;456;53.584;9.968;2023-06-22T03:22:26;5.10;;;3.40;;
938;SDS011;456;53.584;9.968;2023-06-22T03:24:52;2.70;;;2.50;;
938;SDS011;456;53.584;9.968;2023-06-22T03:27:17;3.27;;;2.97;;
938;SDS011;456;53.584;9.968;2023-06-22T03:29:43;3.33;;;2.93;;
938;SDS011;456;53.584;9.968;2023-06-22T03:32:09;3.10;;;2.80;;
938;SDS011;456;53.584;9.968;2023-06-22T03:34:35;3.53;;;3.23;;
938;SDS011;456;53.584;9.968;2023-06-22T03:37:01;3.60;;;3.30;;
938;SDS011;456;53.584;9.968;2023-06-22T03:39:28;3.43;;;3.13;;
938;SDS011;456;53.584;9.968;2023-06-22T03:41:53;3.53;;;3.23;;
938;SDS011;456;53.584;9.968;2023-06-22T03:44:19;3.53;;;2.90;;
938;SDS011;456;53.584;9.968;2023-06-22T03:46:44;4.70;;;3.70;;
938;SDS011;456;53.584;9.968;2023-06-22T03:49:10;4.43;;;3.03;;
938;SDS011;456;53.584;9.968;2023-06-22T03:51:35;3.73;;;3.43;;
938;SDS011;456;53.584;9.968;2023-06-22T03:54:01;3.53;;;3.17;;
938;SDS011;456;53.584;9.968;2023-06-22T03:56:27;3.67;;;3.37;;
938;SDS011;456;53.584;9.968;2023-06-22T03:58:53;3.40;;;2.90;;
938;SDS011;456;53.584;9.968;2023-06-22T04:01:18;3.23;;;2.93;;
938;SDS011;456;53.584;9.968;2023-06-22T04:03:44;3.33;;;3.13;;
938;SDS011;456;53.584;9.968;2023-06-22T04:06:10;4.60;;;3.40;;
938;SDS011;456;53.584;9.968;2023-06-22T04:08:35;3.50;;;3.20;;
938;SDS011;456;53.584;9.968;2023-06-22T04:11:01;3.37;;;3.07;;
938;SDS011;456;53.584;9.968;2023-06-22T04:13:26;3.43;;;3.13;;
938;SDS011;456;53.584;9.968;2023-06-22T04:15:52;3.40;;;3.10;;
938;SDS011;456;53.584;9.968;2023-06-22T04:18:18;3.87;;;3.33;;
938;SDS011;456;53.584;9.968;2023-06-22T04:20:43;3.63;;;3.33;;
938;SDS011;456;53.584;9.968;2023-06-22T04:23:11;3.47;;;3.17;;
938;SDS011;456;53.584;9.968;2023-06-22T04:25:37;3.00;;;2.80;;
938;SDS011;456;53.584;9.968;2023-06-22T04:28:03;3.60;;;3.30;;
938;SDS011;456;53.584;9.968;2023-06-22T04:30:29;3.33;;;3.03;;
938;SDS011;456;53.584;9.968;2023-06-22T04:32:56;3.23;;;3.03;;
938;SDS011;456;53.584;9.968;2023-06-22T04:35:25;3.40;;;3.07;;
938;SDS011;456;53.584;9.968;2023-06-22T04:37:52;3.47;;;3.17;;
938;SDS011;456;53.584;9.968;2023-06-22T04:40:20;3.77;;;3.07;;
938;SDS011;456;53.584;9.968;2023-06-22T04:42:48;3.60;;;3.30;;
938;SDS011;456;53.584;9.968;2023-06-22T04:45:20;3.40;;;3.10;;
938;SDS011;456;53.584;9.968;2023-06-22T04:47:46;4.73;;;3.97;;
938;SDS011;456;53.584;9.968;2023-06-22T04:50:12;3.30;;;3.10;;
938;SDS011;456;53.584;9.968;2023-06-22T04:52:38;3.40;;;3.10;;
938;SDS011;456;53.584;9.968;2023-06-22T04:55:04;5.43;;;3.30;;
938;SDS011;456;53.584;9.968;2023-06-22T04:57:30;3.50;;;3.20;;
938;SDS011;456;53.584;9.968;2023-06-22T04:59:59;3.40;;;2.90;;
938;SDS011;456;53.584;9.968;2023-06-22T05:02:38;3.70;;;3.40;;
938;SDS011;456;53.584;9.968;2023-06-22T05:05:04;3.80;;;3.40;;
938;SDS011;456;53.584;9.968;2023-06-22T05:07:32;4.80;;;3.40;;
938;SDS011;456;53.584;9.968;2023-06-22T05:09:58;3.90;;;3.50;;
938;SDS011;456;53.584;9.968;2023-06-22T05:12:24;3.50;;;3.10;;
938;SDS011;456;53.584;9.968;2023-06-22T05:14:50;3.67;;;2.90;;
938;SDS011;456;53.584;9.968;2023-06-22T05:17:15;3.30;;;2.97;;
938;SDS011;456;53.584;9.968;2023-06-22T05:19:44;2.90;;;2.70;;
938;SDS011;456;53.584;9.968;2023-06-22T05:22:13;3.30;;;3.10;;
938;SDS011;456;53.584;9.968;2023-06-22T05:24:42;4.10;;;3.70;;
938;SDS011;456;53.584;9.968;2023-06-22T05:27:08;3.40;;;3.10;;
938;SDS011;456;53.584;9.968;2023-06-22T05:29:34;3.50;;;3.20;;
938;SDS011;456;53.584;9.968;2023-06-22T05:32:01;3.30;;;3.00;;
938;SDS011;456;53.584;9.968;2023-06-22T05:34:26;3.30;;;3.00;;
938;SDS011;456;53.584;9.968;2023-06-22T05:36:52;3.60;;;3.30;;
938;SDS011;456;53.584;9.968;2023-06-22T05:39:17;3.47;;;3.20;;
938;SDS011;456;53.584;9.968;2023-06-22T05:41:44;3.70;;;3.40;;
938;SDS011;456;53.584;9.968;2023-06-22T05:44:10;4.37;;;3.73;;
938;SDS011;456;53.584;9.968;2023-06-22T05:46:35;3.83;;;2.90;;
938;SDS011;456;53.584;9.968;2023-06-22T05:49:01;3.40;;;3.10;;
938;SDS011;456;53.584;9.968;2023-06-22T05:51:27;3.40;;;3.10;;
938;SDS011;456;53.584;9.968;2023-06-22T05:53:52;4.70;;;3.13;;
938;SDS011;456;53.584;9.968;2023-06-22T05:56:18;3.30;;;3.00;;
938;SDS011;456;53.584;9.968;2023-06-22T05:58:44;3.10;;;2.80;;
938;SDS011;456;53.584;9.968;2023-06-22T06:01:10;3.93;;;3.37;;
938;SDS011;456;53.584;9.968;2023-06-22T06:03:36;3.30;;;3.10;;
938;SDS011;456;53.584;9.968;2023-06-22T06:06:06;3.80;;;3.30;;
938;SDS011;456;53.584;9.968;2023-06-22T06:08:32;3.37;;;3.10;;
938;SDS011;456;53.584;9.968;2023-06-22T06:10:57;3.27;;;2.97;;
938;SDS011;456;53.584;9.968;2023-06-22T06:13:23;3.47;;;3.17;;
938;SDS011;456;53.584;9.968;2023-06-22T06:15:48;3.53;;;3.23;;
938;SDS011;456;53.584;9.968;2023-06-22T06:18:16;3.13;;;2.93;;
938;SDS011;456;53.584;9.968;2023-06-22T06:20:42;3.77;;;3.37;;
938;SDS011;456;53.584;9.968;2023-06-22T06:23:07;3.50;;;3.20;;
938;SDS011;456;53.584;9.968;2023-06-22T06:25:33;3.40;;;3.10;;
938;SDS011;456;53.584;9.968;2023-06-22T06:27:59;3.30;;;3.00;;
938;SDS011;456;53.584;9.968;2023-06-22T06:30:24;3.53;;;2.97;;
938;SDS011;456;53.584;9.968;2023-06-22T06:32:50;3.57;;;3.27;;
938;SDS011;456;53.584;9.968;2023-06-22T06:35:16;3.33;;;3.03;;
938;SDS011;456;53.584;9.968;2023-06-22T06:37:42;3.70;;;3.03;;
938;SDS011;456;53.584;9.968;2023-06-22T06:40:10;3.13;;;2.83;;
938;SDS011;456;53.584;9.968;2023-06-22T06:42:37;3.33;;;3.03;;
938;SDS011;456;53.584;9.968;2023-06-22T06:45:09;3.40;;;3.10;;
938;SDS011;456;53.584;9.968;2023-06-22T06:47:40;3.13;;;2.83;;
938;SDS011;456;53.584;9.968;2023-06-22T06:50:05;3.17;;;2.87;;
938;SDS011;456;53.584;9.968;2023-06-22T06:52:32;3.60;;;3.00;;
938;SDS011;456;53.584;9.968;2023-06-22T06:54:58;3.23;;;2.93;;
938;SDS011;456;53.584;9.968;2023-06-22T06:57:24;3.27;;;2.80;;
938;SDS011;456;53.584;9.968;2023-06-22T06:59:53;3.20;;;2.90;;
938;SDS011;456;53.584;9.968;2023-06-22T07:02:20;2.80;;;2.60;;
938;SDS011;456;53.584;9.968;2023-06-22T07:04:46;2.83;;;2.63;;
938;SDS011;456;53.584;9.968;2023-06-22T07:07:11;2.93;;;2.73;;
938;SDS011;456;53.584;9.968;2023-06-22T07:09:37;3.13;;;2.83;;
938;SDS011;456;53.584;9.968;2023-06-22T07:12:03;3.17;;;2.83;;
938;SDS011;456;53.584;9.968;2023-06-22T07:14:29;2.77;;;2.57;;
938;SDS011;456;53.584;9.968;2023-06-22T07:16:57;3.63;;;3.10;;
938;SDS011;456;53.584;9.968;2023-06-22T07:19:27;3.10;;;2.80;;
938;SDS011;456;53.584;9.968;2023-06-22T07:21:53;2.93;;;2.60;;
938;SDS011;456;53.584;9.968;2023-06-22T07:24:20;3.03;;;2.73;;
938;SDS011;456;53.584;9.968;2023-06-22T07:26:49;3.40;;;3.10;;
938;SDS011;456;53.584;9.968;2023-06-22T07:29:19;2.63;;;2.43;;
938;SDS011;456;53.584;9.968;2023-06-22T07:31:46;2.50;;;2.30;;
938;SDS011;456;53.584;9.968;2023-06-22T07:34:12;2.80;;;2.60;;
938;SDS011;456;53.584;9.968;2023-06-22T07:36:38;2.63;;;2.43;;
938;SDS011;456;53.584;9.968;2023-06-22T07:39:04;2.70;;;2.50;;
938;SDS011;456;53.584;9.968;2023-06-22T07:41:30;3.00;;;2.70;;
938;SDS011;456;53.584;9.968;2023-06-22T07:43:56;2.50;;;2.30;;
938;SDS011;456;53.584;9.968;2023-06-22T07:46:21;4.80;;;2.70;;
938;SDS011;456;53.584;9.968;2023-06-22T07:48:47;2.60;;;2.37;;
938;SDS011;456;53.584;9.968;2023-06-22T07:51:13;2.80;;;2.60;;
938;SDS011;456;53.584;9.968;2023-06-22T07:53:43;2.70;;;2.50;;
938;SDS011;456;53.584;9.968;2023-06-22T07:56:12;2.90;;;2.60;;
938;SDS011;456;53.584;9.968;2023-06-22T07:58:43;3.00;;;2.60;;
938;SDS011;456;53.584;9.968;2023-06-22T08:01:09;2.50;;;2.30;;
938;SDS011;456;53.584;9.968;2023-06-22T08:03:36;3.13;;;2.87;;
938;SDS011;456;53.584;9.968;2023-06-22T08:06:01;4.33;;;2.67;;
938;SDS011;456;53.584;9.968;2023-06-22T08:08:28;3.00;;;2.53;;
938;SDS011;456;53.584;9.968;2023-06-22T08:10:53;2.67;;;2.47;;
938;SDS011;456;53.584;9.968;2023-06-22T08:13:19;2.70;;;2.50;;
938;SDS011;456;53.584;9.968;2023-06-22T08:15:45;3.30;;;3.00;;
938;SDS011;456;53.584;9.968;2023-06-22T08:18:10;3.07;;;2.80;;
938;SDS011;456;53.584;9.968;2023-06-22T08:20:36;2.53;;;2.33;;
938;SDS011;456;53.584;9.968;2023-06-22T08:23:01;2.57;;;2.37;;
938;SDS011;456;53.584;9.968;2023-06-22T08:25:31;2.63;;;2.43;;
938;SDS011;456;53.584;9.968;2023-06-22T08:27:58;3.37;;;2.50;;
938;SDS011;456;53.584;9.968;2023-06-22T08:30:23;1.97;;;1.70;;
938;SDS011;456;53.584;9.968;2023-06-22T08:32:49;2.33;;;2.13;;
938;SDS011;456;53.584;9.968;2023-06-22T08:35:14;2.53;;;2.33;;
938;SDS011;456;53.584;9.968;2023-06-22T08:37:40;2.27;;;2.07;;
938;SDS011;456;53.584;9.968;2023-06-22T08:40:07;2.47;;;2.27;;
938;SDS011;456;53.584;9.968;2023-06-22T08:42:34;2.80;;;2.60;;
938;SDS011;456;53.584;9.968;2023-06-22T08:45:00;2.53;;;2.33;;
938;SDS011;456;53.584;9.968;2023-06-22T08:47:29;2.60;;;2.40;;
938;SDS011;456;53.584;9.968;2023-06-22T08:49:55;2.47;;;2.30;;
938;SDS011;456;53.584;9.968;2023-06-22T08:52:21;2.20;;;2.00;;
938;SDS011;456;53.584;9.968;2023-06-22T08:54:48;2.43;;;2.23;;
938;SDS011;456;53.584;9.968;2023-06-22T08:57:14;2.17;;;2.07;;
938;SDS011;456;53.584;9.968;2023-06-22T08:59:39;2.10;;;2.00;;
938;SDS011;456;53.584;9.968;2023-06-22T09:02:05;2.57;;;2.37;;
938;SDS011;456;53.584;9.968;2023-06-22T09:04:31;2.23;;;2.03;;
938;SDS011;456;53.584;9.968;2023-06-22T09:06:59;2.20;;;2.00;;
938;SDS011;456;53.584;9.968;2023-06-22T09:09:25;2.43;;;2.23;;
938;SDS011;456;53.584;9.968;2023-06-22T09:11:51;2.33;;;2.13;;
938;SDS011;456;53.584;9.968;2023-06-22T09:14:17;2.20;;;2.10;;
938;SDS011;456;53.584;9.968;2023-06-22T09:16:42;2.23;;;2.03;;
938;SDS011;456;53.584;9.968;2023-06-22T09:19:08;2.40;;;2.20;;
938;SDS011;456;53.584;9.968;2023-06-22T09:21:34;2.07;;;1.87;;
938;SDS011;456;53.584;9.968;2023-06-22T09:23:59;2.23;;;2.00;;
938;SDS011;456;53.584;9.968;2023-06-22T09:26:25;2.20;;;2.00;;
938;SDS011;456;53.584;9.968;2023-06-22T09:28:51;2.00;;;1.80;;
938;SDS011;456;53.584;9.968;2023-06-22T09:31:16;2.47;;;2.27;;
938;SDS011;456;53.584;9.968;2023-06-22T09:33:42;2.00;;;1.90;;
938;SDS011;456;53.584;9.968;2023-06-22T09:36:08;2.23;;;2.03;;
938;SDS011;456;53.584;9.968;2023-06-22T09:38:37;1.97;;;1.77;;
938;SDS011;456;53.584;9.968;2023-06-22T09:41:03;2.10;;;1.90;;
938;SDS011;456;53.584;9.968;2023-06-22T09:43:31;3.10;;;2.07;;
938;SDS011;456;53.584;9.968;2023-06-22T09:45:57;2.20;;;2.00;;
938;SDS011;456;53.584;9.968;2023-06-22T09:48:23;2.27;;;2.07;;
938;SDS011;456;53.584;9.968;2023-06-22T09:50:48;2.20;;;2.00;;
938;SDS011;456;53.584;9.968;2023-06-22T09:53:14;2.33;;;2.13;;
938;SDS011;456;53.584;9.968;2023-06-22T09:55:40;2.00;;;1.80;;
938;SDS011;456;53.584;9.968;2023-06-22T09:58:05;2.03;;;1.83;;
938;SDS011;456;53.584;9.968;2023-06-22T10:00:31;2.07;;;1.97;;
938;SDS011;456;53.584;9.968;2023-06-22T10:02:56;2.27;;;1.97;;
938;SDS011;456;53.584;9.968;2023-06-22T10:05:22;2.10;;;1.90;;
938;SDS011;456;53.584;9.968;2023-06-22T10:07:48;2.70;;;2.30;;
938;SDS011;456;53.584;9.968;2023-06-22T10:10:14;2.10;;;1.90;;
938;SDS011;456;53.584;9.968;2023-06-22T10:12:46;2.40;;;2.00;;
938;SDS011;456;53.584;9.968;2023-06-22T10:15:13;2.23;;;2.03;;
938;SDS011;456;53.584;9.968;2023-06-22T10:17:39;2.30;;;2.10;;
938;SDS011;456;53.584;9.968;2023-06-22T10:20:06;2.20;;;2.00;;
938;SDS011;456;53.584;9.968;2023-06-22T10:22:41;1.90;;;1.80;;
938;SDS011;456;53.584;9.968;2023-06-22T10:25:09;2.40;;;2.20;;
938;SDS011;456;53.584;9.968;2023-06-22T10:27:35;2.47;;;2.13;;
938;SDS011;456;53.584;9.968;2023-06-22T10:30:00;2.30;;;2.10;;
938;SDS011;456;53.584;9.968;2023-06-22T10:32:26;2.83;;;2.33;;
938;SDS011;456;53.584;9.968;2023-06-22T10:34:53;1.70;;;1.57;;
938;SDS011;456;53.584;9.968;2023-06-22T10:37:19;2.20;;;2.00;;
938;SDS011;456;53.584;9.968;2023-06-22T10:39:45;2.20;;;1.93;;
938;SDS011;456;53.584;9.968;2023-06-22T10:42:10;3.03;;;2.13;;
938;SDS011;456;53.584;9.968;2023-06-22T10:44:36;1.90;;;1.80;;
938;SDS011;456;53.584;9.968;2023-06-22T10:47:04;2.27;;;1.90;;
938;SDS011;456;53.584;9.968;2023-06-22T10:49:29;2.40;;;2.20;;
938;SDS011;456;53.584;9.968;2023-06-22T10:51:55;2.13;;;1.90;;
938;SDS011;456;53.584;9.968;2023-06-22T10:54:21;2.13;;;1.93;;
938;SDS011;456;53.584;9.968;2023-06-22T10:56:46;1.90;;;1.80;;
938;SDS011;456;53.584;9.968;2023-06-22T10:59:12;2.33;;;2.13;;
938;SDS011;456;53.584;9.968;2023-06-22T11:01:37;2.80;;;2.53;;
938;SDS011;456;53.584;9.968;2023-06-22T11:04:03;2.30;;;2.10;;
938;SDS011;456;53.584;9.968;2023-06-22T11:06:29;2.63;;;2.10;;
938;SDS011;456;53.584;9.968;2023-06-22T11:08:55;3.63;;;1.90;;
938;SDS011;456;53.584;9.968;2023-06-22T11:11:20;2.47;;;2.27;;
938;SDS011;456;53.584;9.968;2023-06-22T11:13:46;2.70;;;2.50;;
938;SDS011;456;53.584;9.968;2023-06-22T11:16:11;3.10;;;2.83;;
938;SDS011;456;53.584;9.968;2023-06-22T11:18:37;3.63;;;3.23;;
938;SDS011;456;53.584;9.968;2023-06-22T11:21:03;5.90;;;4.70;;
938;SDS011;456;53.584;9.968;2023-06-22T11:23:28;8.40;;;5.27;;
938;SDS011;456;53.584;9.968;2023-06-22T11:25:54;8.50;;;5.20;;
938;SDS011;456;53.584;9.968;2023-06-22T11:28:20;8.93;;;5.20;;
938;SDS011;456;53.584;9.968;2023-06-22T11:30:45;11.53;;;5.50;;
938;SDS011;456;53.584;9.968;2023-06-22T11:33:11;6.53;;;4.97;;
938;SDS011;456;53.584;9.968;2023-06-22T11:35:37;12.83;;;5.57;;
938;SDS011;456;53.584;9.968;2023-06-22T11:38:02;11.50;;;5.53;;
938;SDS011;456;53.584;9.968;2023-06-22T11:40:29;8.60;;;6.10;;
938;SDS011;456;53.584;9.968;2023-06-22T11:42:55;8.50;;;5.10;;
938;SDS011;456;53.584;9.968;2023-06-22T11:45:21;9.27;;;5.10;;
938;SDS011;456;53.584;9.968;2023-06-22T11:47:46;9.90;;;6.17;;
938;SDS011;456;53.584;9.968;2023-06-22T11:50:12;9.30;;;5.83;;
938;SDS011;456;53.584;9.968;2023-06-22T11:52:38;9.60;;;5.90;;
938;SDS011;456;53.584;9.968;2023-06-22T11:55:03;11.10;;;6.27;;
938;SDS011;456;53.584;9.968;2023-06-22T11:57:32;11.97;;;5.87;;
938;SDS011;456;53.584;9.968;2023-06-22T11:59:59;10.67;;;5.93;;
938;SDS011;456;53.584;9.968;2023-06-22T12:02:24;10.50;;;5.83;;
938;SDS011;456;53.584;9.968;2023-06-22T12:04:50;11.00;;;6.43;;
938;SDS011;456;53.584;9.968;2023-06-22T12:07:17;10.50;;;5.90;;
938;SDS011;456;53.584;9.968;2023-06-22T12:09:43;10.97;;;6.90;;
938;SDS011;456;53.584;9.968;2023-06-22T12:12:09;9.47;;;6.17;;
938;SDS011;456;53.584;9.968;2023-06-22T12:14:35;9.03;;;6.30;;
938;SDS011;456;53.584;9.968;2023-06-22T12:17:00;12.60;;;7.63;;
938;SDS011;456;53.584;9.968;2023-06-22T12:19:26;9.63;;;7.17;;
938;SDS011;456;53.584;9.968;2023-06-22T12:21:52;10.33;;;6.57;;
938;SDS011;456;53.584;9.968;2023-06-22T12:24:17;12.20;;;7.10;;
938;SDS011;456;53.584;9.968;2023-06-22T12:26:43;11.33;;;6.70;;
938;SDS011;456;53.584;9.968;2023-06-22T12:29:09;8.83;;;6.70;;
938;SDS011;456;53.584;9.968;2023-06-22T12:31:35;12.30;;;7.20;;
938;SDS011;456;53.584;9.968;2023-06-22T12:34:03;13.70;;;7.83;;
938;SDS011;456;53.584;9.968;2023-06-22T12:36:29;9.07;;;6.73;;
938;SDS011;456;53.584;9.968;2023-06-22T12:38:54;10.43;;;7.50;;
938;SDS011;456;53.584;9.968;2023-06-22T12:41:20;10.53;;;7.20;;
938;SDS011;456;53.584;9.968;2023-06-22T12:43:46;8.30;;;6.43;;
938;SDS011;456;53.584;9.968;2023-06-22T12:46:11;11.47;;;7.27;;
938;SDS011;456;53.584;9.968;2023-06-22T12:48:37;9.97;;;7.87;;
938;SDS011;456;53.584;9.968;2023-06-22T12:51:06;11.30;;;7.23;;
938;SDS011;456;53.584;9.968;2023-06-22T12:53:33;9.33;;;7.27;;
938;SDS011;456;53.584;9.968;2023-06-22T12:55:59;9.90;;;6.50;;
938;SDS011;456;53.584;9.968;2023-06-22T12:58:24;10.13;;;7.00;;
938;SDS011;456;53.584;9.968;2023-06-22T13:00:50;9.33;;;6.20;;
938;SDS011;456;53.584;9.968;2023-06-22T13:03:15;12.13;;;7.60;;
938;SDS011;456;53.584;9.968;2023-06-22T13:05:41;10.20;;;6.87;;
938;SDS011;456;53.584;9.968;2023-06-22T13:08:07;9.63;;;6.67;;
938;SDS011;456;53.584;9.968;2023-06-22T13:10:33;9.47;;;6.27;;
938;SDS011;456;53.584;9.968;2023-06-22T13:12:59;9.87;;;7.00;;
938;SDS011;456;53.584;9.968;2023-06-22T13:15:28;9.00;;;6.10;;
938;SDS011;456;53.584;9.968;2023-06-22T13:17:55;9.57;;;6.97;;
938;SDS011;456;53.584;9.968;2023-06-22T13:20:20;8.90;;;6.63;;
938;SDS011;456;53.584;9.968;2023-06-22T13:22:46;7.73;;;6.77;;
938;SDS011;456;53.584;9.968;2023-06-22T13:25:12;9.40;;;6.90;;
938;SDS011;456;53.584;9.968;2023-06-22T13:27:41;9.60;;;6.97;;
938;SDS011;456;53.584;9.968;2023-06-22T13:30:07;10.70;;;6.83;;
938;SDS011;456;53.584;9.968;2023-06-22T13:32:34;8.43;;;6.17;;
938;SDS011;456;53.584;9.968;2023-06-22T13:34:59;10.10;;;6.93;;
938;SDS011;456;53.584;9.968;2023-06-22T13:37:25;9.73;;;6.17;;
938;SDS011;456;53.584;9.968;2023-06-22T13:39:52;7.90;;;6.60;;
938;SDS011;456;53.584;9.968;2023-06-22T13:42:17;9.00;;;6.17;;
938;SDS011;456;53.584;9.968;2023-06-22T13:44:43;11.43;;;7.03;;
938;SDS011;456;53.584;9.968;2023-06-22T13:47:08;8.80;;;6.43;;
938;SDS011;456;53.584;9.968;2023-06-22T13:49:34;9.60;;;6.40;;
938;SDS011;456;53.584;9.968;2023-06-22T13:52:00;9.67;;;6.27;;
938;SDS011;456;53.584;9.968;2023-06-22T13:54:26;7.80;;;6.00;;
938;SDS011;456;53.584;9.968;2023-06-22T13:56:51;8.03;;;5.90;;
938;SDS011;456;53.584;9.968;2023-06-22T13:59:17;7.13;;;6.07;;
938;SDS011;456;53.584;9.968;2023-06-22T14:01:43;7.40;;;6.53;;
938;SDS011;456;53.584;9.968;2023-06-22T14:04:09;8.23;;;6.47;;
938;SDS011;456;53.584;9.968;2023-06-22T14:06:35;8.00;;;6.20;;
938;SDS011;456;53.584;9.968;2023-06-22T14:09:01;8.33;;;6.63;;
938;SDS011;456;53.584;9.968;2023-06-22T14:11:26;9.90;;;6.37;;
938;SDS011;456;53.584;9.968;2023-06-22T14:13:52;7.53;;;6.10;;
938;SDS011;456;53.584;9.968;2023-06-22T14:16:17;6.17;;;4.80;;
938;SDS011;456;53.584;9.968;2023-06-22T14:18:44;8.17;;;6.37;;
938;SDS011;456;53.584;9.968;2023-06-22T14:21:10;7.57;;;6.03;;
938;SDS011;456;53.584;9.968;2023-06-22T14:23:36;6.80;;;5.80;;
938;SDS011;456;53.584;9.968;2023-06-22T14:26:02;11.90;;;6.80;;
938;SDS011;456;53.584;9.968;2023-06-22T14:28:28;7.03;;;5.33;;
938;SDS011;456;53.584;9.968;2023-06-22T14:30:54;6.33;;;5.37;;
938;SDS011;456;53.584;9.968;2023-06-22T14:33:19;7.77;;;5.77;;
938;SDS011;456;53.584;9.968;2023-06-22T14:35:45;8.90;;;5.87;;
938;SDS011;456;53.584;9.968;2023-06-22T14:38:11;8.50;;;6.07;;
938;SDS011;456;53.584;9.968;2023-06-22T14:40:36;7.97;;;5.53;;
938;SDS011;456;53.584;9.968;2023-06-22T14:43:02;10.03;;;6.07;;
938;SDS011;456;53.584;9.968;2023-06-22T14:45:27;7.57;;;6.40;;
938;SDS011;456;53.584;9.968;2023-06-22T14:47:53;8.40;;;6.60;;
938;SDS011;456;53.584;9.968;2023-06-22T14:50:18;8.67;;;6.03;;
938;SDS011;456;53.584;9.968;2023-06-22T14:52:44;6.00;;;5.40;;
938;SDS011;456;53.584;9.968;2023-06-22T14:55:10;8.30;;;5.90;;
938;SDS011;456;53.584;9.968;2023-06-22T14:57:35;6.00;;;4.80;;
938;SDS011;456;53.584;9.968;2023-06-22T15:00:01;7.40;;;5.50;;
938;SDS011;456;53.584;9.968;2023-06-22T15:02:27;6.83;;;5.33;;
938;SDS011;456;53.584;9.968;2023-06-22T15:04:53;8.33;;;6.00;;
938;SDS011;456;53.584;9.968;2023-06-22T15:07:19;7.70;;;5.50;;
938;SDS011;456;53.584;9.968;2023-06-22T15:09:45;8.30;;;5.90;;
938;SDS011;456;53.584;9.968;2023-06-22T15:12:11;6.17;;;5.23;;
938;SDS011;456;53.584;9.968;2023-06-22T15:14:37;9.80;;;6.20;;
938;SDS011;456;53.584;9.968;2023-06-22T15:17:04;5.87;;;4.93;;
938;SDS011;456;53.584;9.968;2023-06-22T15:19:31;7.43;;;5.80;;
938;SDS011;456;53.584;9.968;2023-06-22T15:21:56;6.60;;;5.20;;
938;SDS011;456;53.584;9.968;2023-06-22T15:24:22;8.43;;;5.27;;
938;SDS011;456;53.584;9.968;2023-06-22T15:26:47;5.97;;;5.27;;
938;SDS011;456;53.584;9.968;2023-06-22T15:29:13;8.67;;;5.70;;
938;SDS011;456;53.584;9.968;2023-06-22T15:31:38;6.17;;;4.83;;
938;SDS011;456;53.584;9.968;2023-06-22T15:34:04;6.27;;;5.67;;
938;SDS011;456;53.584;9.968;2023-06-22T15:36:30;7.60;;;5.87;;
938;SDS011;456;53.584;9.968;2023-06-22T15:38:55;6.60;;;4.93;;
938;SDS011;456;53.584;9.968;2023-06-22T15:41:21;6.00;;;5.40;;
938;SDS011;456;53.584;9.968;2023-06-22T15:43:47;6.23;;;5.30;;
938;SDS011;456;53.584;9.968;2023-06-22T15:46:13;8.57;;;5.70;;
938;SDS011;456;53.584;9.968;2023-06-22T15:48:42;6.90;;;5.30;;